Time;durP1;ratioP1;P1;durP2;ratioP2;P2;SDS_P1;SDS_P2;PMS_P1;PMS_P2;Temp;Humidity;BMP_temperature;BMP_pressure;BME280_temperature;BME280_humidity;BME280_pressure;Samples;Min_cycle;Max_cycle;Signal;HPM_P1;HPM_P2
2023/11/10 00:01:56;;;;;;;19.90;8.40;;;;;;;9.62;61.10;98354.59;234096;213;139532;-57
2023/11/10 00:07:00;;;;;;;14.10;8.70;;;;;;;9.62;60.75;98357.40;234032;213;138435;-55
2023/11/10 00:12:03;;;;;;;13.40;7.80;;;;;;;9.64;61.14;98353.69;233625;212;149915;-57
2023/11/10 00:17:09;;;;;;;14.60;8.60;;;;;;;9.66;61.31;98343.33;234172;215;138780;-57
2023/11/10 00:22:13;;;;;;;21.50;9.50;;;;;;;9.66;61.22;98337.84;234018;210;137761;-57
2023/11/10 00:27:16;;;;;;;27.90;9.60;;;;;;;9.72;60.89;98336.02;233938;213;150280;-56
2023/11/10 00:32:20;;;;;;;22.40;10.20;;;;;;;9.73;60.75;98329.01;234240;214;138944;-56
2023/11/10 00:37:23;;;;;;;19.50;9.70;;;;;;;9.73;60.60;98325.83;234263;213;137306;-57
2023/11/10 00:42:26;;;;;;;18.40;10.30;;;;;;;9.70;60.68;98311.83;234242;215;150140;-57
2023/11/10 00:47:29;;;;;;;24.70;11.40;;;;;;;9.77;60.72;98305.22;234322;212;138887;-57
2023/11/10 00:52:33;;;;;;;22.30;11.70;;;;;;;9.84;60.83;98302.94;234474;213;138301;-55
2023/11/10 00:57:36;;;;;;;22.20;10.70;;;;;;;9.84;60.73;98300.77;234346;212;150727;-56
2023/11/10 01:02:39;;;;;;;18.80;10.50;;;;;;;9.82;60.71;98296.65;234123;213;139727;-55
2023/11/10 01:07:45;;;;;;;20.30;10.10;;;;;;;9.86;60.56;98289.70;234274;216;138089;-56
2023/11/10 01:12:48;;;;;;;20.80;10.70;;;;;;;9.83;60.54;98275.54;234170;216;150445;-56
2023/11/10 01:17:52;;;;;;;19.20;9.10;;;;;;;9.91;60.42;98277.59;234180;216;141499;-57
2023/11/10 01:22:55;;;;;;;19.10;8.90;;;;;;;10.04;60.20;98269.75;234424;214;138201;-57
2023/11/10 01:27:58;;;;;;;18.30;8.90;;;;;;;10.09;60.07;98258.44;234241;214;149158;-56
2023/11/10 01:33:02;;;;;;;19.40;10.60;;;;;;;10.09;60.19;98252.37;234179;215;140562;-56
2023/11/10 01:38:05;;;;;;;22.40;11.20;;;;;;;10.12;60.04;98244.73;234209;216;137967;-56
2023/11/10 01:43:14;;;;;;;18.90;9.70;;;;;;;10.16;60.19;98235.91;234170;216;149696;-57
2023/11/10 01:48:17;;;;;;;22.10;9.70;;;;;;;10.16;60.11;98234.00;234119;216;138929;-56
2023/11/10 01:53:21;;;;;;;21.30;9.80;;;;;;;10.11;60.18;98229.77;234163;215;138009;-56
2023/11/10 01:58:26;;;;;;;21.50;10.30;;;;;;;10.07;60.34;98228.63;234303;216;151164;-56
2023/11/10 02:03:29;;;;;;;14.80;9.40;;;;;;;9.95;60.57;98226.10;234175;208;139717;-57
2023/11/10 02:08:34;;;;;;;17.40;9.40;;;;;;;9.90;61.17;98216.73;234262;208;137722;-57
2023/11/10 02:13:37;;;;;;;18.60;10.10;;;;;;;9.89;61.44;98212.21;234256;214;149351;-56
2023/11/10 02:18:41;;;;;;;17.40;8.80;;;;;;;9.83;61.51;98198.45;234166;215;139813;-56
2023/11/10 02:23:46;;;;;;;19.00;10.20;;;;;;;9.78;62.04;98188.35;234192;216;138511;-56
2023/11/10 02:28:49;;;;;;;23.70;9.90;;;;;;;9.73;62.27;98179.17;234272;214;149986;-56
2023/11/10 02:33:53;;;;;;;20.50;9.30;;;;;;;9.67;62.51;98175.32;234189;215;139523;-56
2023/11/10 02:38:57;;;;;;;21.80;9.00;;;;;;;9.67;62.56;98166.13;234231;216;138193;-58
2023/11/10 02:44:00;;;;;;;17.60;7.70;;;;;;;9.71;62.19;98154.48;234325;215;150514;-58
2023/11/10 02:49:04;;;;;;;12.40;7.60;;;;;;;9.79;62.02;98153.63;234244;216;139172;-58
2023/11/10 02:54:07;;;;;;;15.40;7.10;;;;;;;9.72;62.11;98152.00;234237;213;137319;-58
2023/11/10 02:59:11;;;;;;;13.70;6.90;;;;;;;9.72;62.68;98155.69;234242;215;150588;-60
2023/11/10 03:04:14;;;;;;;12.80;7.60;;;;;;;9.80;62.73;98152.66;234241;216;138815;-57
2023/11/10 03:09:17;;;;;;;13.70;7.10;;;;;;;9.88;62.33;98152.17;234212;215;137642;-55
2023/11/10 03:14:21;;;;;;;16.10;6.70;;;;;;;9.88;62.30;98150.41;234247;215;151845;-57
2023/11/10 03:19:24;;;;;;;14.90;7.20;;;;;;;9.86;62.56;98145.64;234215;215;139315;-57
2023/11/10 03:24:28;;;;;;;12.80;6.40;;;;;;;9.87;62.83;98141.66;234335;215;139011;-57
2023/11/10 03:29:31;;;;;;;21.60;7.80;;;;;;;9.86;62.65;98141.71;234268;213;149914;-57
2023/11/10 03:34:42;;;;;;;15.00;7.10;;;;;;;9.80;62.81;98139.02;234320;216;138819;-57
2023/11/10 03:39:46;;;;;;;19.20;7.00;;;;;;;9.75;63.11;98133.71;234246;213;137638;-57
2023/11/10 03:44:49;;;;;;;15.70;7.20;;;;;;;9.72;63.47;98130.02;234173;214;149457;-57
2023/11/10 03:49:52;;;;;;;16.80;6.90;;;;;;;9.73;63.44;98132.79;234235;215;139402;-57
2023/11/10 03:54:55;;;;;;;20.90;7.20;;;;;;;9.73;63.00;98129.79;234220;215;138261;-57
2023/11/10 03:59:58;;;;;;;15.70;6.60;;;;;;;9.72;62.90;98126.11;234281;215;149180;-57
2023/11/10 04:05:02;;;;;;;9.30;5.30;;;;;;;9.77;62.95;98124.35;234194;215;139830;-57
2023/11/10 04:10:06;;;;;;;12.10;4.60;;;;;;;9.87;62.63;98121.10;234365;215;137803;-57
2023/11/10 04:15:10;;;;;;;9.80;3.80;;;;;;;10.05;61.90;98113.76;234296;214;149082;-57
2023/11/10 04:20:13;;;;;;;5.50;3.40;;;;;;;10.28;60.83;98106.90;234298;215;139088;-56
2023/11/10 04:25:17;;;;;;;8.80;3.40;;;;;;;10.48;60.15;98102.67;234180;216;138089;-56
2023/11/10 04:30:22;;;;;;;17.70;5.30;;;;;;;10.62;60.11;98092.22;234213;213;150174;-55
2023/11/10 04:35:25;;;;;;;23.40;5.60;;;;;;;10.55;60.57;98092.81;234136;216;139358;-57
2023/11/10 04:40:29;;;;;;;123.60;82.90;;;;;;;10.46;61.05;98095.63;234274;213;138854;-57
2023/11/10 04:45:32;;;;;;;21.40;7.30;;;;;;;10.40;62.09;98087.53;234103;213;149143;-57
2023/11/10 04:50:36;;;;;;;18.80;6.40;;;;;;;10.38;62.16;98089.13;234174;213;140976;-57
2023/11/10 04:55:43;;;;;;;118.80;81.50;;;;;;;10.28;62.10;98079.77;234253;215;138464;-58
2023/11/10 05:00:46;;;;;;;1038.60;681.90;;;;;;;10.23;62.60;98079.41;234194;209;149972;-58
2023/11/10 05:05:49;;;;;;;66.10;40.50;;;;;;;10.17;62.82;98077.91;234170;215;138929;-58
2023/11/10 05:10:52;;;;;;;42.80;13.60;;;;;;;10.14;62.75;98078.98;234255;216;138388;-54
2023/11/10 05:15:55;;;;;;;27.40;6.30;;;;;;;10.12;62.34;98080.98;234160;208;149411;-56
2023/11/10 05:20:59;;;;;;;22.20;5.70;;;;;;;10.03;62.27;98078.45;234193;214;138657;-57
2023/11/10 05:26:02;;;;;;;20.60;5.60;;;;;;;9.99;62.77;98085.17;234251;215;138273;-58
2023/11/10 05:31:06;;;;;;;28.00;6.20;;;;;;;9.96;63.13;98082.89;234239;213;150276;-59
2023/11/10 05:36:09;;;;;;;22.40;10.10;;;;;;;9.99;63.64;98083.39;234157;215;260186;-58
2023/11/10 05:41:12;;;;;;;12.60;5.50;;;;;;;10.01;63.08;98085.35;234227;214;139093;-58
2023/11/10 05:46:16;;;;;;;19.00;6.30;;;;;;;9.96;63.09;98089.08;234284;216;149513;-58
2023/11/10 05:51:19;;;;;;;26.80;13.00;;;;;;;9.92;63.25;98090.11;234080;216;138875;-59
2023/11/10 05:56:25;;;;;;;22.10;10.70;;;;;;;9.91;63.99;98086.23;234288;215;138636;-58
2023/11/10 06:01:29;;;;;;;13.10;5.40;;;;;;;9.89;63.07;98087.80;234160;213;150481;-59
2023/11/10 06:06:33;;;;;;;13.40;5.80;;;;;;;9.90;63.15;98087.74;234173;216;138324;-58
2023/11/10 06:11:36;;;;;;;12.60;5.50;;;;;;;9.93;63.03;98087.36;234229;213;137058;-57
2023/11/10 06:16:57;;;;;;;12.60;6.10;;;;;;;9.91;63.00;98094.93;234321;213;149130;-58
2023/11/10 06:22:00;;;;;;;11.20;5.70;;;;;;;9.90;63.31;98092.34;233963;213;138832;-57
2023/11/10 06:27:04;;;;;;;12.90;5.60;;;;;;;9.86;63.36;98093.17;234208;216;137519;-58
2023/11/10 06:32:09;;;;;;;12.20;6.00;;;;;;;9.83;63.38;98101.90;234220;215;149351;-59
2023/11/10 06:37:13;;;;;;;18.30;5.20;;;;;;;9.81;63.69;98103.46;234014;213;139585;-57
2023/11/10 06:42:16;;;;;;;19.20;5.00;;;;;;;9.81;63.75;98098.89;234193;214;138349;-58
2023/11/10 06:47:19;;;;;;;19.90;5.00;;;;;;;9.82;63.82;98102.68;233668;215;149195;-58
2023/11/10 06:52:23;;;;;;;11.90;4.60;;;;;;;9.84;63.86;98099.36;234263;214;141442;-58
2023/11/10 06:57:26;;;;;;;14.80;4.60;;;;;;;9.89;63.63;98094.73;234180;214;137666;-58
2023/11/10 07:02:29;;;;;;;10.00;4.50;;;;;;;9.94;63.60;98092.98;234243;214;149218;-60
2023/11/10 07:07:33;;;;;;;8.30;4.00;;;;;;;10.01;63.54;98093.52;234220;213;139932;-59
2023/11/10 07:12:36;;;;;;;12.70;4.40;;;;;;;10.08;63.36;98092.75;234275;215;138139;-59
2023/11/10 07:17:41;;;;;;;8.70;4.60;;;;;;;10.15;63.33;98098.28;234202;213;149664;-57
2023/11/10 07:22:45;;;;;;;9.50;4.30;;;;;;;10.20;63.27;98099.83;234227;215;138828;-59
2023/11/10 07:27:48;;;;;;;10.70;4.10;;;;;;;10.28;63.26;98102.32;234326;215;141514;-57
2023/11/10 07:32:52;;;;;;;7.90;3.70;;;;;;;10.33;63.05;98095.49;234265;215;149288;-59
2023/11/10 07:37:55;;;;;;;8.50;4.00;;;;;;;10.40;62.94;98092.85;234196;215;139886;-59
2023/11/10 07:42:59;;;;;;;8.80;4.20;;;;;;;10.46;62.85;98088.48;234220;216;137762;-59
2023/11/10 07:48:03;;;;;;;6.70;4.00;;;;;;;10.52;62.73;98092.66;234163;214;149223;-57
2023/11/10 07:53:06;;;;;;;10.60;4.50;;;;;;;10.60;62.56;98092.41;234253;215;139811;-59
2023/11/10 07:58:09;;;;;;;8.50;4.20;;;;;;;10.66;62.55;98091.58;234330;214;138257;-56
2023/11/10 08:03:13;;;;;;;13.90;4.40;;;;;;;10.73;62.38;98090.00;234243;212;150014;-58
2023/11/10 08:08:16;;;;;;;12.10;4.40;;;;;;;10.80;62.09;98087.48;234204;213;139961;-58
2023/11/10 08:13:19;;;;;;;12.90;4.70;;;;;;;10.86;62.12;98089.80;234252;215;137618;-58
2023/11/10 08:18:23;;;;;;;12.90;4.40;;;;;;;10.89;62.16;98091.70;234238;215;149185;-57
2023/11/10 08:23:26;;;;;;;13.90;4.50;;;;;;;10.92;62.04;98087.77;234236;213;139282;-58
2023/11/10 08:28:30;;;;;;;14.60;5.00;;;;;;;10.95;62.07;98083.44;234373;215;138119;-59
2023/11/10 08:33:33;;;;;;;15.00;5.00;;;;;;;10.97;62.17;98090.01;234109;216;149876;-58
2023/11/10 08:38:37;;;;;;;10.10;4.40;;;;;;;11.01;62.36;98088.27;234142;216;139597;-59
2023/11/10 08:43:40;;;;;;;10.60;5.00;;;;;;;11.07;62.60;98096.36;234256;215;137620;-58
2023/11/10 08:48:44;;;;;;;14.50;4.40;;;;;;;11.13;62.50;98095.31;234257;209;150191;-58
2023/11/10 08:53:47;;;;;;;11.00;4.00;;;;;;;11.19;62.42;98091.68;234250;213;138780;-59
2023/11/10 08:58:53;;;;;;;7.10;3.90;;;;;;;11.28;62.26;98094.81;234281;213;137719;-59
2023/11/10 09:03:56;;;;;;;7.90;4.00;;;;;;;11.37;62.07;98087.59;234199;214;150458;-58
2023/11/10 09:09:16;;;;;;;9.90;4.40;;;;;;;11.46;62.01;98089.66;234076;216;139575;-59
2023/11/10 09:14:20;;;;;;;9.20;4.20;;;;;;;11.59;61.66;98089.70;234163;214;138387;-59
2023/11/10 09:19:23;;;;;;;11.80;4.80;;;;;;;11.76;61.70;98081.86;234135;213;149860;-59
2023/11/10 09:24:26;;;;;;;12.80;5.10;;;;;;;11.99;61.50;98077.55;234129;216;140295;-59
2023/11/10 09:29:29;;;;;;;12.80;6.10;;;;;;;12.18;61.09;98063.67;234201;214;138738;-58
2023/11/10 09:34:33;;;;;;;14.70;6.00;;;;;;;12.33;60.55;98061.66;234288;216;149766;-59
2023/11/10 09:39:36;;;;;;;13.50;6.20;;;;;;;12.50;60.50;98056.13;234212;215;141029;-58
2023/11/10 09:44:42;;;;;;;17.90;6.40;;;;;;;12.73;60.26;98050.61;234113;213;137693;-59
2023/11/10 09:49:45;;;;;;;12.70;6.20;;;;;;;12.96;59.97;98046.98;234275;215;149956;-61
2023/11/10 09:54:51;;;;;;;16.80;6.40;;;;;;;13.13;59.69;98043.38;234152;214;138889;-61
2023/11/10 09:59:56;;;;;;;16.20;6.50;;;;;;;13.25;59.25;98040.93;234205;214;138297;-57
2023/11/10 10:05:00;;;;;;;20.10;6.20;;;;;;;13.33;58.93;98036.24;234338;216;149539;-60
2023/11/10 10:10:04;;;;;;;20.00;7.00;;;;;;;13.41;58.67;98037.13;234149;214;141856;-59
2023/11/10 10:15:08;;;;;;;28.60;7.10;;;;;;;13.52;58.62;98032.59;234164;214;137787;-60
2023/11/10 10:20:14;;;;;;;20.70;6.90;;;;;;;13.58;58.40;98022.45;233808;216;149818;-58
2023/11/10 10:25:21;;;;;;;25.00;6.90;;;;;;;13.63;58.26;98024.61;234130;214;138857;-59
2023/11/10 10:30:25;;;;;;;21.20;6.90;;;;;;;13.70;58.22;98020.06;234162;214;137514;-59
2023/11/10 10:35:29;;;;;;;26.00;6.70;;;;;;;13.75;57.76;98010.21;234141;215;149876;-58
2023/11/10 10:40:35;;;;;;;25.10;6.60;;;;;;;13.75;57.63;98001.98;234335;214;138918;-59
2023/11/10 10:45:41;;;;;;;24.70;6.40;;;;;;;13.79;57.77;97995.23;234184;215;139312;-57
2023/11/10 10:50:45;;;;;;;28.90;7.30;;;;;;;13.83;57.83;97993.75;234197;215;149650;-59
2023/11/10 10:55:53;;;;;;;22.10;6.50;;;;;;;13.89;57.98;97989.66;234024;215;139452;-59
2023/11/10 11:00:58;;;;;;;19.00;6.30;;;;;;;13.93;57.83;97981.04;234213;215;137940;-59
2023/11/10 11:06:02;;;;;;;18.50;6.30;;;;;;;13.97;58.49;97979.77;234228;215;150072;-59
2023/11/10 11:11:37;;;;;;;20.00;6.00;;;;;;;14.07;58.40;97978.73;234147;214;139743;-58
2023/11/10 11:17:10;;;;;;;17.50;6.40;;;;;;;14.08;58.42;97976.79;234257;213;138138;-57
2023/11/10 11:22:16;;;;;;;19.40;5.70;;;;;;;14.09;58.50;97973.66;234379;212;149642;-59
2023/11/10 11:27:22;;;;;;;21.90;7.80;;;;;;;14.10;58.53;97966.13;234209;213;139273;-59
2023/11/10 11:32:32;;;;;;;13.90;6.30;;;;;;;14.04;58.66;97962.55;234179;215;139182;-58
2023/11/10 11:37:37;;;;;;;23.40;6.60;;;;;;;13.98;59.17;97965.12;234163;215;150854;-58
2023/11/10 11:42:41;;;;;;;30.70;8.60;;;;;;;13.90;60.30;97967.84;234091;213;139387;-59
2023/11/10 11:47:44;;;;;;;28.10;13.40;;;;;;;13.83;61.93;97968.95;234048;213;137775;-59
2023/11/10 11:52:48;;;;;;;15.70;6.50;;;;;;;13.73;62.96;97972.75;234203;213;149383;-59
2023/11/10 11:57:51;;;;;;;19.60;7.20;;;;;;;13.54;63.34;97971.16;234211;215;140055;-59
2023/11/10 12:02:55;;;;;;;24.10;6.90;;;;;;;13.41;64.51;97970.11;234121;214;138307;-59
2023/11/10 12:07:59;;;;;;;20.20;6.50;;;;;;;13.35;65.40;97962.68;234213;213;150536;-58
2023/11/10 12:13:02;;;;;;;20.70;6.70;;;;;;;13.37;65.56;97955.23;233988;213;139370;-58
2023/11/10 12:18:07;;;;;;;17.70;7.00;;;;;;;13.40;65.47;97949.77;234116;214;139837;-59
2023/11/10 12:23:14;;;;;;;19.90;7.10;;;;;;;13.40;65.34;97948.52;234154;210;150375;-57
2023/11/10 12:28:18;;;;;;;17.00;6.20;;;;;;;13.35;65.69;97952.53;234215;213;139030;-58
2023/11/10 12:33:23;;;;;;;16.30;6.30;;;;;;;13.33;66.01;97945.92;234162;214;139253;-59
2023/11/10 12:38:26;;;;;;;24.80;6.30;;;;;;;13.32;66.79;97935.73;234139;209;150300;-57
2023/11/10 12:43:29;;;;;;;22.10;7.30;;;;;;;13.29;67.14;97932.21;234090;208;138854;-59
2023/11/10 12:48:35;;;;;;;18.30;7.50;;;;;;;13.28;67.71;97925.22;234113;214;137618;-63
2023/11/10 12:53:39;;;;;;;17.10;9.10;;;;;;;13.28;68.47;97923.11;234102;213;150621;-59
2023/11/10 12:58:42;;;;;;;15.40;6.50;;;;;;;13.32;68.50;97914.33;234233;213;139137;-59
2023/11/10 13:03:45;;;;;;;26.10;8.10;;;;;;;13.36;68.51;97913.63;234122;213;140105;-58
2023/11/10 13:08:48;;;;;;;23.40;8.10;;;;;;;13.37;67.53;97908.94;234060;215;149521;-59
2023/11/10 13:13:52;;;;;;;22.60;8.20;;;;;;;13.36;67.25;97907.08;234155;213;138859;-58
2023/11/10 13:18:56;;;;;;;22.10;8.80;;;;;;;13.32;67.47;97908.61;234085;214;138063;-63
2023/11/10 13:23:59;;;;;;;21.00;8.60;;;;;;;13.27;67.50;97913.68;234134;209;149401;-63
2023/11/10 13:29:05;;;;;;;23.10;9.00;;;;;;;13.21;68.13;97913.31;234194;213;141061;-63
2023/11/10 13:34:14;;;;;;;18.80;8.70;;;;;;;13.15;68.41;97901.60;234059;213;138624;-63
2023/11/10 13:39:19;;;;;;;19.40;7.90;;;;;;;13.07;68.61;97896.95;234020;213;150063;-63
2023/11/10 13:44:23;;;;;;;15.90;7.30;;;;;;;13.00;68.77;97895.77;234041;213;140200;-64
2023/11/10 13:49:26;;;;;;;19.30;8.10;;;;;;;12.97;69.01;97896.08;234042;209;139315;-64
2023/11/10 13:54:30;;;;;;;24.10;8.80;;;;;;;12.99;69.01;97890.80;234005;208;149212;-62
2023/11/10 13:59:39;;;;;;;20.80;9.00;;;;;;;13.00;68.67;97889.61;234119;213;138763;-64
2023/11/10 14:04:42;;;;;;;18.70;9.10;;;;;;;13.01;68.77;97885.23;234208;213;137426;-62
2023/11/10 14:09:47;;;;;;;17.20;10.20;;;;;;;12.99;69.09;97884.33;234104;213;149290;-62
2023/11/10 14:14:50;;;;;;;196.40;129.00;;;;;;;12.99;69.41;97879.58;234003;213;139389;-59
2023/11/10 14:19:53;;;;;;;26.60;15.00;;;;;;;13.00;69.95;97879.04;234176;213;137643;-60
2023/11/10 14:24:57;;;;;;;19.70;12.50;;;;;;;12.95;69.63;97878.62;234073;208;150334;-60
2023/11/10 14:30:00;;;;;;;18.80;10.00;;;;;;;12.90;69.79;97879.08;234117;208;139045;-60
2023/11/10 14:35:04;;;;;;;16.50;9.80;;;;;;;12.86;69.90;97874.00;234240;212;138721;-59
2023/11/10 14:40:16;;;;;;;16.20;8.70;;;;;;;12.86;70.14;97875.77;234144;209;150905;-60
2023/11/10 14:45:21;;;;;;;18.10;9.80;;;;;;;12.87;70.09;97875.95;234139;214;138887;-60
2023/11/10 14:50:36;;;;;;;19.50;9.10;;;;;;;12.86;70.02;97867.31;234151;213;137419;-60
2023/11/10 14:55:41;;;;;;;16.10;8.90;;;;;;;12.81;70.18;97863.87;234115;213;153007;-59
2023/11/10 15:00:44;;;;;;;13.90;8.90;;;;;;;12.76;70.22;97857.75;234151;208;138832;-58
2023/11/10 15:05:48;;;;;;;15.20;9.20;;;;;;;12.69;70.43;97861.27;234137;213;138445;-59
2023/11/10 15:10:51;;;;;;;15.10;9.10;;;;;;;12.62;70.78;97861.50;234275;213;150012;-60
2023/11/10 15:15:57;;;;;;;13.50;8.30;;;;;;;12.55;70.77;97863.75;234062;214;138885;-60
2023/11/10 15:21:00;;;;;;;16.10;8.00;;;;;;;12.52;70.84;97866.30;234080;212;137943;-60
2023/11/10 15:26:05;;;;;;;13.80;8.10;;;;;;;12.54;70.86;97863.77;234064;208;149292;-60
2023/11/10 15:31:09;;;;;;;16.80;8.20;;;;;;;12.59;70.76;97858.79;234066;214;139721;-60
2023/11/10 15:36:18;;;;;;;14.00;8.50;;;;;;;12.58;70.83;97856.01;234142;213;137507;-58
2023/11/10 15:41:22;;;;;;;15.00;8.30;;;;;;;12.54;70.86;97859.00;234125;214;150780;-58
2023/11/10 15:46:25;;;;;;;16.60;8.50;;;;;;;12.48;71.03;97863.48;234205;213;139922;-59
2023/11/10 15:51:28;;;;;;;17.60;8.30;;;;;;;12.44;71.03;97866.17;233761;208;138044;-58
2023/11/10 15:56:41;;;;;;;12.40;7.00;;;;;;;12.40;71.01;97865.81;234118;209;149873;-57
2023/11/10 16:01:45;;;;;;;10.30;6.80;;;;;;;12.36;70.75;97859.04;233990;214;138696;-59
2023/11/10 16:06:48;;;;;;;11.80;6.70;;;;;;;12.37;70.63;97866.59;234102;214;138214;-59
2023/11/10 16:11:52;;;;;;;14.20;7.40;;;;;;;12.40;70.54;97866.88;234100;214;149119;-59
2023/11/10 16:16:56;;;;;;;69.40;49.60;;;;;;;12.47;71.39;97871.04;234335;212;141369;-59
2023/11/10 16:22:01;;;;;;;14.00;8.70;;;;;;;12.53;70.47;97871.90;234062;213;138894;-58
2023/11/10 16:27:07;;;;;;;11.50;7.40;;;;;;;12.44;70.45;97868.64;234201;213;150052;-59
2023/11/10 16:32:11;;;;;;;13.70;7.30;;;;;;;12.35;70.64;97865.14;234143;212;139482;-59
2023/11/10 16:37:14;;;;;;;12.30;7.70;;;;;;;12.26;70.69;97863.69;234127;209;137720;-59
2023/11/10 16:42:18;;;;;;;12.50;7.50;;;;;;;12.13;70.70;97860.73;234095;216;149444;-59
2023/11/10 16:47:23;;;;;;;13.10;7.70;;;;;;;12.02;71.19;97861.42;234106;213;140323;-59
2023/11/10 16:52:26;;;;;;;13.20;7.50;;;;;;;11.94;71.40;97855.74;234234;213;140400;-59
2023/11/10 16:57:30;;;;;;;14.80;7.90;;;;;;;11.94;71.18;97855.02;234107;209;149174;-59
2023/11/10 17:02:34;;;;;;;11.90;8.00;;;;;;;11.92;71.02;97851.50;234083;213;139806;-58
2023/11/10 17:07:48;;;;;;;13.90;7.80;;;;;;;11.88;70.84;97853.61;234168;215;137403;-59
2023/11/10 17:12:53;;;;;;;12.50;8.00;;;;;;;11.82;70.94;97854.11;234157;213;150555;-57
2023/11/10 17:17:57;;;;;;;13.60;8.30;;;;;;;11.74;70.97;97851.23;234102;208;138835;-59
2023/11/10 17:23:00;;;;;;;17.70;9.10;;;;;;;11.67;71.24;97846.39;234176;212;137643;-59
2023/11/10 17:28:04;;;;;;;15.50;9.20;;;;;;;11.57;71.40;97844.51;234061;209;149484;-59
2023/11/10 17:33:07;;;;;;;15.20;8.60;;;;;;;11.50;71.34;97842.41;234148;214;138958;-59
2023/11/10 17:38:11;;;;;;;13.10;8.40;;;;;;;11.46;71.60;97840.33;234135;214;138627;-58
2023/11/10 17:43:14;;;;;;;13.60;9.20;;;;;;;11.44;71.67;97834.61;234081;213;149869;-58
2023/11/10 17:48:17;;;;;;;15.10;9.00;;;;;;;11.43;71.56;97830.45;234150;212;139173;-58
2023/11/10 17:53:20;;;;;;;15.10;9.30;;;;;;;11.40;71.39;97829.42;234181;209;138302;-57
2023/11/10 17:58:26;;;;;;;;;;;;;;;11.38;71.45;97826.42;234260;214;149569;-58
2023/11/10 18:03:30;;;;;;;15.80;9.70;;;;;;;11.35;71.45;97822.60;234245;214;138944;-59
2023/11/10 18:08:34;;;;;;;15.60;9.90;;;;;;;11.28;71.44;97813.75;234194;213;137799;-59
2023/11/10 18:13:38;;;;;;;19.10;10.40;;;;;;;11.21;71.47;97806.89;234041;213;149900;-59
2023/11/10 18:18:42;;;;;;;14.60;9.70;;;;;;;11.15;71.41;97807.61;234161;209;139514;-59
2023/11/10 18:23:46;;;;;;;14.90;9.10;;;;;;;11.10;71.48;97810.83;234191;213;137475;-58
2023/11/10 18:28:50;;;;;;;15.40;9.70;;;;;;;11.09;71.66;97815.75;234228;212;149323;-59
2023/11/10 18:33:55;;;;;;;21.00;11.60;;;;;;;11.10;71.55;97817.77;234042;213;139000;-59
2023/11/10 18:38:58;;;;;;;17.00;11.00;;;;;;;11.13;71.37;97817.91;234083;213;138097;-59
2023/11/10 18:44:02;;;;;;;17.80;11.40;;;;;;;11.14;71.53;97823.85;234098;214;149824;-59
2023/11/10 18:49:06;;;;;;;18.50;12.00;;;;;;;11.11;71.45;97823.67;234084;213;138821;-59
2023/11/10 18:54:10;;;;;;;17.40;11.60;;;;;;;11.07;71.50;97829.58;234065;213;137231;-60
2023/11/10 18:59:14;;;;;;;19.90;11.40;;;;;;;11.05;71.56;97823.17;234130;213;149839;-59
2023/11/10 19:04:17;;;;;;;20.90;13.30;;;;;;;11.00;71.68;97819.85;234211;214;138874;-58
2023/11/10 19:09:20;;;;;;;19.50;12.10;;;;;;;10.99;71.32;97821.53;234138;214;138235;-59
2023/11/10 19:14:23;;;;;;;17.70;11.20;;;;;;;10.93;71.11;97828.23;234123;208;150132;-59
2023/11/10 19:19:27;;;;;;;17.20;10.70;;;;;;;10.92;71.28;97820.69;234102;209;139470;-59
2023/11/10 19:24:31;;;;;;;19.10;12.50;;;;;;;10.96;71.89;97819.29;234085;212;138520;-58
2023/11/10 19:29:34;;;;;;;137.10;104.50;;;;;;;10.98;72.02;97819.70;234081;213;150758;-58
2023/11/10 19:34:40;;;;;;;41.70;29.30;;;;;;;11.18;73.33;97817.66;234197;213;138925;-57
2023/11/10 19:39:43;;;;;;;20.10;12.70;;;;;;;11.47;72.05;97819.63;234095;214;138255;-58
2023/11/10 19:44:48;;;;;;;21.90;12.90;;;;;;;11.41;71.29;97807.17;233974;213;149532;-57
2023/11/10 19:49:51;;;;;;;22.20;12.40;;;;;;;11.30;71.04;97803.34;234090;208;139400;-58
2023/11/10 19:54:57;;;;;;;18.70;11.90;;;;;;;11.17;70.94;97802.98;234109;213;137283;-58
2023/11/10 20:00:00;;;;;;;20.80;12.70;;;;;;;11.06;71.31;97810.82;234121;213;285834;-57
2023/11/10 20:05:13;;;;;;;21.10;13.50;;;;;;;10.97;71.34;97812.70;233819;208;138628;-58
2023/11/10 20:10:16;;;;;;;19.50;12.90;;;;;;;10.94;71.53;97806.02;234211;214;139447;-58
2023/11/10 20:15:19;;;;;;;21.40;13.90;;;;;;;10.94;71.76;97806.55;234081;213;149908;-58
2023/11/10 20:20:24;;;;;;;19.60;12.70;;;;;;;10.94;72.02;97802.67;234070;209;139374;-57
2023/11/10 20:25:27;;;;;;;19.40;13.20;;;;;;;10.90;72.24;97799.23;234172;210;138427;-58
2023/11/10 20:30:31;;;;;;;255.20;191.80;;;;;;;10.88;72.61;97803.42;234089;209;150218;-58
2023/11/10 20:35:34;;;;;;;26.50;17.30;;;;;;;11.02;72.90;97805.32;234172;208;139630;-59
2023/11/10 20:40:37;;;;;;;23.50;14.70;;;;;;;11.10;72.19;97805.16;234334;213;138401;-58
2023/11/10 20:45:40;;;;;;;26.40;14.90;;;;;;;10.99;72.26;97807.54;234106;208;150175;-58
2023/11/10 20:50:44;;;;;;;22.70;13.10;;;;;;;10.93;72.60;97804.52;234114;212;140030;-58
2023/11/10 20:55:50;;;;;;;20.90;14.40;;;;;;;10.87;72.63;97802.33;234077;213;139256;-58
2023/11/10 21:00:53;;;;;;;22.60;14.70;;;;;;;10.88;72.82;97804.38;234064;216;151546;-58
2023/11/10 21:05:57;;;;;;;103.50;70.10;;;;;;;10.90;73.10;97796.04;234112;214;139686;-57
2023/11/10 21:11:01;;;;;;;38.70;25.60;;;;;;;11.01;73.37;97784.48;233892;213;137746;-59
2023/11/10 21:16:04;;;;;;;23.10;15.20;;;;;;;11.19;72.79;97784.90;234210;212;151129;-58
2023/11/10 21:21:10;;;;;;;23.40;14.70;;;;;;;11.14;72.37;97774.87;234090;214;139376;-58
2023/11/10 21:26:14;;;;;;;27.70;17.40;;;;;;;11.01;72.51;97774.64;234093;213;139211;-58
2023/11/10 21:31:17;;;;;;;40.10;31.20;;;;;;;10.98;72.95;97772.79;234188;209;150502;-59
2023/11/10 21:36:21;;;;;;;23.30;16.00;;;;;;;11.01;72.86;97760.86;233912;213;138832;-57
2023/11/10 21:41:26;;;;;;;22.50;15.20;;;;;;;10.90;72.66;97751.83;234179;214;139081;-57
2023/11/10 21:46:30;;;;;;;28.60;16.70;;;;;;;10.85;72.75;97749.08;234341;214;151410;-56
2023/11/10 21:51:33;;;;;;;25.80;15.70;;;;;;;10.83;72.63;97745.48;234214;216;139332;-57
2023/11/10 21:56:37;;;;;;;22.20;15.40;;;;;;;10.79;72.72;97736.80;234077;216;137900;-55
2023/11/10 22:01:40;;;;;;;20.70;14.30;;;;;;;10.71;72.65;97730.73;234178;216;149416;-58
2023/11/10 22:06:43;;;;;;;22.80;15.00;;;;;;;10.61;72.69;97727.32;234190;215;139407;-56
2023/11/10 22:11:46;;;;;;;23.70;14.90;;;;;;;10.58;73.01;97723.67;234243;214;138135;-58
2023/11/10 22:16:50;;;;;;;21.30;14.50;;;;;;;10.53;73.05;97721.58;234349;216;149455;-56
2023/11/10 22:21:54;;;;;;;20.80;13.60;;;;;;;10.46;72.89;97716.35;234097;215;139459;-57
2023/11/10 22:26:57;;;;;;;20.40;13.90;;;;;;;10.40;72.96;97720.19;234260;213;139130;-57
2023/11/10 22:32:01;;;;;;;25.80;13.10;;;;;;;10.41;73.11;97716.20;234313;215;149805;-57
2023/11/10 22:37:04;;;;;;;18.50;13.20;;;;;;;10.41;73.10;97714.20;234131;215;138744;-57
2023/11/10 22:42:07;;;;;;;19.70;13.30;;;;;;;10.41;73.17;97711.34;234199;215;139508;-56
2023/11/10 22:47:11;;;;;;;22.40;13.50;;;;;;;10.41;73.16;97711.02;234336;214;149792;-58
2023/11/10 22:52:14;;;;;;;18.90;12.80;;;;;;;10.38;73.11;97709.71;234319;215;139847;-58
2023/11/10 22:57:17;;;;;;;18.60;12.90;;;;;;;10.32;73.06;97703.86;234222;215;138446;-59
2023/11/10 23:02:21;;;;;;;22.00;13.50;;;;;;;10.26;73.13;97695.79;234200;215;151466;-58
2023/11/10 23:07:24;;;;;;;20.00;11.90;;;;;;;10.21;73.21;97696.23;234140;212;139112;-57
2023/11/10 23:12:27;;;;;;;17.40;11.30;;;;;;;10.16;73.18;97691.29;234207;216;139219;-58
2023/11/10 23:17:31;;;;;;;18.50;12.40;;;;;;;10.18;73.20;97686.17;234265;215;149966;-59